createdAt,value
2019-04-07T00:03:16.219Z,69.98
2019-04-07T00:10:01.816Z,70.57
2019-04-07T00:12:40.274Z,70.61
2019-04-07T00:15:20.977Z,70.84
2019-04-07T00:18:08.217Z,71.16
2019-04-07T00:20:49.471Z,71.24
2019-04-07T00:23:37.144Z,71.18
2019-04-07T00:26:17.136Z,71.50
2019-04-07T00:29:04.820Z,71.79
2019-04-07T00:31:47.294Z,71.86
2019-04-07T00:34:29.244Z,71.81
2019-04-07T00:37:17.118Z,71.85
2019-04-07T00:39:59.378Z,71.89
2019-04-07T00:42:46.580Z,71.94
2019-04-07T00:45:27.222Z,71.98
2019-04-07T00:48:14.450Z,72.07
2019-04-07T00:50:56.510Z,72.10
2019-04-07T00:53:46.300Z,72.00
2019-04-07T00:56:28.670Z,71.90
2019-04-07T00:59:35.395Z,72.73
2019-04-07T01:02:16.934Z,72.83
2019-04-07T01:07:57.515Z,72.98
2019-04-07T01:10:38.362Z,73.59
2019-04-07T01:13:26.219Z,73.72
2019-04-07T01:16:07.493Z,73.64
2019-04-07T01:18:54.715Z,73.52
2019-04-07T01:21:34.615Z,73.46
2019-04-07T01:24:22.000Z,73.61
2019-04-07T01:27:03.977Z,73.52
2019-04-07T01:29:51.693Z,73.87
2019-04-07T01:32:33.801Z,73.82
2019-04-07T01:35:21.335Z,74.03
2019-04-07T01:38:02.877Z,74.23
2019-04-07T01:41:10.728Z,74.05
2019-04-07T01:44:13.573Z,73.91
2019-04-07T01:47:21.034Z,74.03
2019-04-07T01:50:26.389Z,74.19
2019-04-07T01:53:28.095Z,74.22
2019-04-07T01:57:21.545Z,74.65
2019-04-07T02:00:21.573Z,74.83
2019-04-07T02:03:48.413Z,74.72
2019-04-07T02:06:34.928Z,73.93
2019-04-07T02:09:40.219Z,74.37
2019-04-07T02:12:47.823Z,74.88
2019-04-07T02:15:54.862Z,75.43
2019-04-07T02:19:02.016Z,75.54
2019-04-07T02:25:19.892Z,74.94
2019-04-07T02:28:27.637Z,75.03
2019-04-07T02:34:07.235Z,75.82
2019-04-07T02:37:14.250Z,75.99
2019-04-07T02:40:03.851Z,76.41
2019-04-07T02:43:31.094Z,77.14
2019-04-07T02:46:31.413Z,77.14
2019-04-07T02:49:26.263Z,77.36
2019-04-07T02:52:14.722Z,77.29
2019-04-07T02:55:06.173Z,78.22
2019-04-07T02:58:01.503Z,77.67
2019-04-07T03:00:50.667Z,77.47
2019-04-07T03:03:58.278Z,77.33
2019-04-07T03:06:58.784Z,77.46
2019-04-07T03:10:05.799Z,77.41
2019-04-07T03:13:07.232Z,77.93
2019-04-07T03:16:04.465Z,78.37
2019-04-07T03:19:01.961Z,78.51
2019-04-07T03:21:50.097Z,78.51
2019-04-07T03:24:45.955Z,79.17
2019-04-07T03:27:51.610Z,79.22
2019-04-07T03:31:01.829Z,79.01
2019-04-07T03:33:54.428Z,79.24
2019-04-07T03:37:19.379Z,79.64
2019-04-07T03:39:52.485Z,79.73
2019-04-07T03:42:53.564Z,79.74
2019-04-07T03:49:18.621Z,79.76
2019-04-07T03:55:49.297Z,79.89
2019-04-07T03:58:50.769Z,80.22
2019-04-07T04:01:57.930Z,80.32
2019-04-07T04:05:05.349Z,80.55
2019-04-07T04:14:16.522Z,81.65
2019-04-07T04:20:50.492Z,82.75
2019-04-07T04:23:31.765Z,82.83
2019-04-07T04:26:18.949Z,82.77
2019-04-07T04:41:46.694Z,82.34
2019-04-07T04:55:51.392Z,82.42
2019-04-07T04:58:38.509Z,82.16
2019-04-07T05:07:26.756Z,81.46
2019-04-07T05:10:08.093Z,81.34
2019-04-07T05:12:56.076Z,80.98
2019-04-07T05:15:37.909Z,80.61
2019-04-07T05:18:25.609Z,80.29
2019-04-07T05:21:08.531Z,80.00
2019-04-07T05:23:56.118Z,79.89
2019-04-07T05:26:36.578Z,79.94
2019-04-07T05:29:23.801Z,79.69
2019-04-07T05:32:11.109Z,79.27
2019-04-07T05:34:52.100Z,78.68
2019-04-07T05:37:39.425Z,78.46
2019-04-07T05:40:20.123Z,79.03
2019-04-07T05:43:07.339Z,78.83
2019-04-07T05:45:48.821Z,78.31
2019-04-07T05:48:36.045Z,78.12
2019-04-07T05:51:16.443Z,78.33
2019-04-07T05:57:10.685Z,77.59
2019-04-07T05:59:57.984Z,77.21
2019-04-07T06:06:28.870Z,77.18
2019-04-07T06:19:05.399Z,75.60
2019-04-07T06:21:50.582Z,74.90
2019-04-07T06:24:33.342Z,74.08
2019-04-07T06:27:19.888Z,74.16
2019-04-07T06:30:00.969Z,74.73
2019-04-07T06:32:48.464Z,74.91
2019-04-07T06:35:28.749Z,75.12
2019-04-07T06:38:16.631Z,75.22
2019-04-07T06:41:06.276Z,74.72
2019-04-07T06:43:46.385Z,75.11
2019-04-07T06:49:56.408Z,73.45
2019-04-07T06:53:05.453Z,72.12
2019-04-07T06:56:11.081Z,71.46
2019-04-07T06:59:18.539Z,70.92
2019-04-07T07:08:41.746Z,69.15
2019-04-07T07:11:34.359Z,68.44
2019-04-07T07:17:48.703Z,67.06
2019-04-07T07:23:52.887Z,64.38
2019-04-07T07:26:40.286Z,62.65
2019-04-07T07:29:21.377Z,62.84
2019-04-07T07:32:08.620Z,62.64
2019-04-07T07:34:49.812Z,61.64
2019-04-07T07:37:37.765Z,60.63
2019-04-07T07:40:18.880Z,60.20
2019-04-07T07:43:06.546Z,59.76
2019-04-07T07:45:48.703Z,58.21
2019-04-07T07:48:36.697Z,57.31
2019-04-07T07:51:17.989Z,57.18
2019-04-07T07:54:05.622Z,56.81
2019-04-07T07:56:50.224Z,55.95
2019-04-07T07:59:38.437Z,54.08
2019-04-07T08:02:19.951Z,52.89
2019-04-07T08:05:08.183Z,52.01
2019-04-07T08:08:14.978Z,51.77
2019-04-07T08:11:01.287Z,50.77
2019-04-07T08:13:46.992Z,49.91
2019-04-07T08:16:31.206Z,48.30
2019-04-07T08:19:16.820Z,45.66
2019-04-07T08:21:59.612Z,42.75
2019-04-07T08:24:49.638Z,39.57
2019-04-07T08:27:31.196Z,34.16
2019-04-07T08:30:18.894Z,30.96
2019-04-07T08:33:00.438Z,28.30
2019-04-07T08:35:42.549Z,26.48
2019-04-07T08:38:29.946Z,24.69
2019-04-07T08:41:14.298Z,22.67
2019-04-07T08:44:00.756Z,21.01
2019-04-07T08:46:43.142Z,20.46
2019-04-07T08:49:32.702Z,19.38
2019-04-07T08:52:12.483Z,18.66
2019-04-07T08:55:00.043Z,18.67
2019-04-07T08:57:41.278Z,18.57
2019-04-07T09:03:17.183Z,17.19
2019-04-07T09:06:04.735Z,15.96
2019-04-07T09:08:46.869Z,16.03
2019-04-07T09:12:31.327Z,15.49
2019-04-07T09:15:17.805Z,17.35
2019-04-07T09:21:35.488Z,16.35
2019-04-07T09:24:33.612Z,16.04
2019-04-07T09:27:23.272Z,16.81
2019-04-07T09:30:09.971Z,14.94
2019-04-07T09:33:03.744Z,13.67
2019-04-07T09:36:11.195Z,13.65
2019-04-07T09:39:09.052Z,14.25
2019-04-07T09:42:16.963Z,14.82
2019-04-07T09:45:07.433Z,13.74
2019-04-07T09:48:13.800Z,13.63
2019-04-07T09:51:13.831Z,13.70
2019-04-07T09:54:22.530Z,13.92
2019-04-07T09:57:22.546Z,13.54
2019-04-07T10:03:30.492Z,13.51
2019-04-07T10:06:30.761Z,13.17
2019-04-07T10:09:30.534Z,12.73
2019-04-07T10:12:56.624Z,13.34
2019-04-07T10:15:45.047Z,13.40
2019-04-07T10:18:49.239Z,11.81
2019-04-07T10:25:00.866Z,11.17
2019-04-07T10:28:03.033Z,12.85
2019-04-07T10:30:52.929Z,12.11
2019-04-07T10:34:01.878Z,11.36
2019-04-07T10:36:52.002Z,11.75
2019-04-07T10:40:36.596Z,11.10
2019-04-07T10:43:39.313Z,11.19
2019-04-07T10:46:44.942Z,10.78
2019-04-07T10:50:02.406Z,10.93
2019-04-07T10:52:58.593Z,11.99
2019-04-07T10:55:52.963Z,13.07
2019-04-07T10:58:59.785Z,15.41
2019-04-07T11:02:00.222Z,14.29
2019-04-07T11:05:07.138Z,14.21
2019-04-07T11:11:18.067Z,15.29
2019-04-07T11:14:18.476Z,15.56
2019-04-07T11:17:27.648Z,16.35
2019-04-07T11:20:14.914Z,16.03
2019-04-07T11:23:16.761Z,17.02
2019-04-07T11:26:29.906Z,15.21
2019-04-07T11:29:20.789Z,14.01
2019-04-07T11:32:21.496Z,13.80
2019-04-07T11:35:15.131Z,15.78
2019-04-07T11:41:47.174Z,13.90
2019-04-07T11:48:17.596Z,12.24
2019-04-07T11:54:33.821Z,12.06
2019-04-07T11:57:24.060Z,11.92
2019-04-07T12:03:45.380Z,13.93
2019-04-07T12:06:53.709Z,12.37
2019-04-07T12:12:32.513Z,12.31
2019-04-07T12:15:45.186Z,12.21
2019-04-07T12:18:37.165Z,14.99
2019-04-07T12:21:38.532Z,15.21
2019-04-07T12:24:33.764Z,13.95
2019-04-07T12:27:42.993Z,14.31
2019-04-07T12:30:48.883Z,15.71
2019-04-07T12:33:52.784Z,15.10
2019-04-07T12:37:04.372Z,16.93
2019-04-07T12:40:09.284Z,16.47
2019-04-07T12:43:13.189Z,15.28
2019-04-07T12:46:19.455Z,16.07
2019-04-07T12:49:17.361Z,16.48
2019-04-07T12:52:28.105Z,15.14
2019-04-07T12:55:28.484Z,15.00
2019-04-07T12:58:31.248Z,14.28
2019-04-07T13:01:38.203Z,14.39
2019-04-07T13:07:41.558Z,12.67
2019-04-07T13:10:49.338Z,12.02
2019-04-07T13:13:49.237Z,12.40
2019-04-07T13:17:36.592Z,14.26
2019-04-07T13:20:36.538Z,15.40
2019-04-07T13:23:29.786Z,15.15
2019-04-07T13:26:17.582Z,14.72
2019-04-07T13:29:24.451Z,13.99
2019-04-07T13:32:18.769Z,16.97
2019-04-07T13:35:26.547Z,21.08
2019-04-07T13:41:44.487Z,18.27
2019-04-07T13:44:46.815Z,16.73
2019-04-07T13:47:44.708Z,18.55
2019-04-07T13:50:50.251Z,20.99
2019-04-07T13:53:50.150Z,21.44
2019-04-07T13:56:56.934Z,24.24
2019-04-07T13:59:57.791Z,24.79
2019-04-07T14:03:05.878Z,20.99
2019-04-07T14:06:06.875Z,19.25
2019-04-07T14:09:13.757Z,21.99
2019-04-07T14:12:14.315Z,25.35
2019-04-07T14:18:12.343Z,24.69
2019-04-07T14:24:23.098Z,25.14
2019-04-07T14:27:29.823Z,27.47
2019-04-07T14:30:38.192Z,28.52
2019-04-07T14:33:43.457Z,30.73
2019-04-07T14:42:54.936Z,26.23
2019-04-07T14:45:48.680Z,28.22
2019-04-07T14:48:49.128Z,29.68
2019-04-07T14:51:56.029Z,30.23
2019-04-07T14:54:58.597Z,30.75
2019-04-07T14:58:04.594Z,31.04
2019-04-07T15:01:14.276Z,31.92
2019-04-07T15:04:01.090Z,33.06
2019-04-07T15:06:41.142Z,34.35
2019-04-07T15:09:48.078Z,34.79
2019-04-07T15:12:42.527Z,34.63
2019-04-07T15:15:23.731Z,34.04
2019-04-07T15:18:11.650Z,33.91
2019-04-07T15:20:53.499Z,34.07
2019-04-07T15:23:43.707Z,34.39
2019-04-07T15:26:23.551Z,34.77
2019-04-07T15:29:11.010Z,36.46
2019-04-07T15:31:52.298Z,36.85
2019-04-07T15:34:42.248Z,36.33
2019-04-07T15:37:24.133Z,36.00
2019-04-07T15:40:12.079Z,35.65
2019-04-07T15:43:19.171Z,35.82
2019-04-07T15:46:00.064Z,35.52
2019-04-07T15:48:48.314Z,35.49
2019-04-07T15:51:34.158Z,35.67
2019-04-07T15:54:22.389Z,35.90
2019-04-07T15:57:02.596Z,35.93
2019-04-07T15:59:50.163Z,36.09
2019-04-07T16:03:00.126Z,36.40
2019-04-07T16:12:17.288Z,36.41
2019-04-07T16:18:12.713Z,37.28
2019-04-07T16:21:02.800Z,37.57
2019-04-07T16:23:40.639Z,37.57
2019-04-07T16:26:30.199Z,37.73
2019-04-07T16:29:15.481Z,37.91
2019-04-07T16:32:01.933Z,37.90
2019-04-07T16:34:44.840Z,38.39
2019-04-07T16:37:32.208Z,38.33
2019-04-07T16:40:13.082Z,38.23
2019-04-07T16:43:11.679Z,38.29
2019-04-07T16:45:44.960Z,38.50
2019-04-07T16:48:34.017Z,38.58
2019-04-07T16:51:13.918Z,39.01
2019-04-07T16:54:01.501Z,39.14
2019-04-07T16:56:44.132Z,39.43
2019-04-07T16:59:31.702Z,39.62
2019-04-07T17:02:15.594Z,39.94
2019-04-07T17:05:03.052Z,40.37
2019-04-07T17:07:48.412Z,40.64
2019-04-07T17:10:35.698Z,40.88
2019-04-07T17:16:26.994Z,41.06
2019-04-07T17:19:15.079Z,41.63
2019-04-07T17:28:13.604Z,42.58
2019-04-07T17:34:19.108Z,43.08
2019-04-07T17:37:07.256Z,43.23
2019-04-07T17:40:13.032Z,43.47
2019-04-07T17:49:32.936Z,44.64
2019-04-07T17:52:35.830Z,44.81
2019-04-07T17:55:41.002Z,45.28
2019-04-07T17:58:47.870Z,45.92
2019-04-07T18:01:48.415Z,46.10
2019-04-07T18:04:55.435Z,46.50
2019-04-07T18:08:01.816Z,46.61
2019-04-07T18:11:04.277Z,46.78
2019-04-07T18:14:04.581Z,47.24
2019-04-07T18:17:11.444Z,47.65
2019-04-07T18:20:21.455Z,47.78
2019-04-07T18:23:27.753Z,48.00
2019-04-07T18:26:27.417Z,48.27
2019-04-07T18:29:28.755Z,48.86
2019-04-07T18:32:26.406Z,49.49
2019-04-07T18:35:33.330Z,49.51
2019-04-07T18:38:33.154Z,49.99
2019-04-07T18:41:40.390Z,50.52
2019-04-07T18:44:41.366Z,50.67
2019-04-07T18:47:29.982Z,50.73
2019-04-07T18:50:38.611Z,50.78
2019-04-07T18:56:55.206Z,50.96
2019-04-07T19:00:01.299Z,51.25
2019-04-07T19:07:07.761Z,50.97
2019-04-07T19:10:20.812Z,51.15
2019-04-07T19:16:12.588Z,50.63
2019-04-07T19:19:19.314Z,50.54
2019-04-07T19:22:21.399Z,50.33
2019-04-07T19:25:21.626Z,50.44
2019-04-07T19:28:21.175Z,50.42
2019-04-07T19:31:23.620Z,50.37
2019-04-07T19:34:31.774Z,50.57
2019-04-07T19:37:22.874Z,50.54
2019-04-07T19:40:25.530Z,50.53
2019-04-07T19:43:22.115Z,50.73
2019-04-07T19:46:20.258Z,50.87
2019-04-07T19:49:51.301Z,51.16
2019-04-07T19:52:49.890Z,51.37
2019-04-07T19:55:59.474Z,51.54
2019-04-07T19:59:09.722Z,51.59
2019-04-07T20:02:01.799Z,51.82
2019-04-07T20:05:08.489Z,51.59
2019-04-07T20:08:08.408Z,51.55
2019-04-07T20:11:16.006Z,51.49
2019-04-07T20:14:17.116Z,51.55
2019-04-07T20:17:08.384Z,51.38
2019-04-07T20:20:16.270Z,51.30
2019-04-07T20:23:22.974Z,51.18
2019-04-07T20:29:54.058Z,51.29
2019-04-07T20:33:40.083Z,51.14
2019-04-07T20:42:51.839Z,50.39
2019-04-07T20:45:55.882Z,50.77
2019-04-07T20:48:45.374Z,50.50
2019-04-07T20:51:54.512Z,50.72
2019-04-07T20:55:03.779Z,50.81
2019-04-07T20:58:16.067Z,50.51
2019-04-07T21:01:16.639Z,50.71
2019-04-07T21:07:23.522Z,51.17
2019-04-07T21:10:19.641Z,51.19
2019-04-07T21:13:26.467Z,51.20
2019-04-07T21:16:30.026Z,50.95
2019-04-07T21:19:38.653Z,51.06
2019-04-07T21:22:33.461Z,51.36
2019-04-07T21:25:31.640Z,51.44
2019-04-07T21:28:36.837Z,51.45
2019-04-07T21:31:36.645Z,51.35
2019-04-07T21:34:43.672Z,51.22
2019-04-07T21:43:51.289Z,51.78
2019-04-07T21:46:58.114Z,52.13
2019-04-07T21:53:30.597Z,52.12
2019-04-07T21:56:34.807Z,51.95
2019-04-07T22:05:59.363Z,51.98
2019-04-07T22:08:45.429Z,52.29
2019-04-07T22:11:32.973Z,52.12
2019-04-07T22:14:13.110Z,51.58
2019-04-07T22:17:02.555Z,51.97
2019-04-07T22:19:45.432Z,51.93
2019-04-07T22:22:31.277Z,51.85
2019-04-07T22:25:11.839Z,51.57
2019-04-07T22:27:59.187Z,51.62
2019-04-07T22:30:43.264Z,51.61
2019-04-07T22:33:48.112Z,51.46
2019-04-07T22:36:29.397Z,51.20
2019-04-07T22:39:16.789Z,51.48
2019-04-07T22:45:27.490Z,51.58
2019-04-07T22:48:12.176Z,51.50
2019-04-07T22:50:57.079Z,51.44
2019-04-07T22:53:37.132Z,51.32
2019-04-07T22:59:34.271Z,51.11
2019-04-07T23:02:15.987Z,51.18
2019-04-07T23:04:56.198Z,51.45
2019-04-07T23:07:43.819Z,51.52
2019-04-07T23:10:31.681Z,51.66
2019-04-07T23:13:13.293Z,51.76
2019-04-07T23:16:06.713Z,51.99
2019-04-07T23:18:43.312Z,51.98
2019-04-07T23:21:23.556Z,52.34
2019-04-07T23:24:10.982Z,52.40
2019-04-07T23:26:51.273Z,52.53
2019-04-07T23:29:38.758Z,52.58
2019-04-07T23:32:21.857Z,52.59
2019-04-07T23:35:08.422Z,52.69
2019-04-07T23:37:48.872Z,52.77
2019-04-07T23:40:36.127Z,52.69
2019-04-07T23:43:17.417Z,52.70
2019-04-07T23:46:05.144Z,52.78
2019-04-07T23:48:45.936Z,52.95
2019-04-07T23:51:33.182Z,53.13
2019-04-07T23:54:14.415Z,53.24
2019-04-07T23:57:01.761Z,53.32
2019-04-07T23:59:43.059Z,53.49
